sensor_id;sensor_type;location;lat;lon;timestamp;P1;durP1;ratioP1;P2;durP2;ratioP2
16862;SDS011;52193;48.216;-1.698;2022-11-20T00:01:24;11.20;;;10.10;;
16862;SDS011;52193;48.216;-1.698;2022-11-20T00:03:53;11.20;;;10.10;;
16862;SDS011;52193;48.216;-1.698;2022-11-20T00:06:21;11.17;;;10.17;;
16862;SDS011;52193;48.216;-1.698;2022-11-20T00:08:49;11.32;;;10.23;;
16862;SDS011;52193;48.216;-1.698;2022-11-20T00:11:16;12.48;;;10.40;;
16862;SDS011;52193;48.216;-1.698;2022-11-20T00:13:45;10.77;;;9.77;;
16862;SDS011;52193;48.216;-1.698;2022-11-20T00:16:13;10.45;;;9.55;;
16862;SDS011;52193;48.216;-1.698;2022-11-20T00:18:43;11.55;;;10.55;;
16862;SDS011;52193;48.216;-1.698;2022-11-20T00:21:11;11.55;;;10.35;;
16862;SDS011;52193;48.216;-1.698;2022-11-20T00:23:39;11.73;;;10.50;;
16862;SDS011;52193;48.216;-1.698;2022-11-20T00:26:07;11.30;;;10.30;;
16862;SDS011;52193;48.216;-1.698;2022-11-20T00:28:35;10.48;;;9.57;;
16862;SDS011;52193;48.216;-1.698;2022-11-20T00:31:02;10.88;;;9.75;;
16862;SDS011;52193;48.216;-1.698;2022-11-20T00:33:30;10.77;;;9.48;;
16862;SDS011;52193;48.216;-1.698;2022-11-20T00:36:02;10.07;;;8.98;;
16862;SDS011;52193;48.216;-1.698;2022-11-20T00:38:31;9.80;;;8.90;;
16862;SDS011;52193;48.216;-1.698;2022-11-20T00:40:59;9.02;;;8.13;;
16862;SDS011;52193;48.216;-1.698;2022-11-20T00:43:27;9.35;;;8.52;;
16862;SDS011;52193;48.216;-1.698;2022-11-20T00:45:57;9.38;;;8.48;;
16862;SDS011;52193;48.216;-1.698;2022-11-20T00:48:24;8.83;;;7.93;;
16862;SDS011;52193;48.216;-1.698;2022-11-20T00:50:51;8.73;;;8.00;;
16862;SDS011;52193;48.216;-1.698;2022-11-20T00:53:20;9.32;;;7.47;;
16862;SDS011;52193;48.216;-1.698;2022-11-20T00:55:54;8.57;;;7.68;;
16862;SDS011;52193;48.216;-1.698;2022-11-20T00:58:22;8.43;;;7.50;;
16862;SDS011;52193;48.216;-1.698;2022-11-20T01:00:50;8.85;;;7.35;;
16862;SDS011;52193;48.216;-1.698;2022-11-20T01:03:17;8.13;;;7.32;;
16862;SDS011;52193;48.216;-1.698;2022-11-20T01:05:45;8.80;;;7.20;;
16862;SDS011;52193;48.216;-1.698;2022-11-20T01:08:11;9.40;;;7.13;;
16862;SDS011;52193;48.216;-1.698;2022-11-20T01:10:40;7.47;;;6.70;;
16862;SDS011;52193;48.216;-1.698;2022-11-20T01:13:07;7.70;;;7.00;;
16862;SDS011;52193;48.216;-1.698;2022-11-20T01:15:51;7.53;;;6.83;;
16862;SDS011;52193;48.216;-1.698;2022-11-20T01:18:18;7.95;;;7.03;;
16862;SDS011;52193;48.216;-1.698;2022-11-20T01:20:45;7.43;;;6.68;;
16862;SDS011;52193;48.216;-1.698;2022-11-20T01:23:12;9.23;;;6.70;;
16862;SDS011;52193;48.216;-1.698;2022-11-20T01:25:40;7.65;;;6.90;;
16862;SDS011;52193;48.216;-1.698;2022-11-20T01:28:07;7.15;;;6.30;;
16862;SDS011;52193;48.216;-1.698;2022-11-20T01:30:34;7.55;;;6.45;;
16862;SDS011;52193;48.216;-1.698;2022-11-20T01:33:01;7.15;;;6.40;;
16862;SDS011;52193;48.216;-1.698;2022-11-20T01:35:28;7.63;;;6.30;;
16862;SDS011;52193;48.216;-1.698;2022-11-20T01:37:54;6.75;;;6.07;;
16862;SDS011;52193;48.216;-1.698;2022-11-20T01:40:21;7.38;;;6.18;;
16862;SDS011;52193;48.216;-1.698;2022-11-20T01:42:53;6.30;;;5.70;;
16862;SDS011;52193;48.216;-1.698;2022-11-20T01:45:51;7.18;;;5.57;;
16862;SDS011;52193;48.216;-1.698;2022-11-20T01:48:28;5.30;;;4.80;;
16862;SDS011;52193;48.216;-1.698;2022-11-20T01:50:59;5.70;;;5.10;;
16862;SDS011;52193;48.216;-1.698;2022-11-20T01:53:32;5.45;;;4.95;;
16862;SDS011;52193;48.216;-1.698;2022-11-20T01:56:03;6.25;;;4.57;;
16862;SDS011;52193;48.216;-1.698;2022-11-20T01:58:35;5.90;;;4.80;;
16862;SDS011;52193;48.216;-1.698;2022-11-20T02:01:05;5.30;;;4.65;;
16862;SDS011;52193;48.216;-1.698;2022-11-20T02:03:32;5.05;;;4.10;;
16862;SDS011;52193;48.216;-1.698;2022-11-20T02:06:01;4.60;;;4.15;;
16862;SDS011;52193;48.216;-1.698;2022-11-20T02:08:34;5.00;;;4.10;;
16862;SDS011;52193;48.216;-1.698;2022-11-20T02:11:02;6.07;;;4.10;;
16862;SDS011;52193;48.216;-1.698;2022-11-20T02:13:29;6.07;;;4.40;;
16862;SDS011;52193;48.216;-1.698;2022-11-20T02:16:13;5.43;;;4.03;;
16862;SDS011;52193;48.216;-1.698;2022-11-20T02:18:43;6.53;;;4.15;;
16862;SDS011;52193;48.216;-1.698;2022-11-20T02:21:13;4.90;;;4.40;;
16862;SDS011;52193;48.216;-1.698;2022-11-20T02:26:40;4.60;;;3.78;;
16862;SDS011;52193;48.216;-1.698;2022-11-20T02:29:10;7.07;;;4.13;;
16862;SDS011;52193;48.216;-1.698;2022-11-20T02:31:37;5.47;;;3.85;;
16862;SDS011;52193;48.216;-1.698;2022-11-20T02:34:07;4.53;;;3.78;;
16862;SDS011;52193;48.216;-1.698;2022-11-20T02:36:35;5.57;;;3.90;;
16862;SDS011;52193;48.216;-1.698;2022-11-20T02:39:04;4.97;;;4.10;;
16862;SDS011;52193;48.216;-1.698;2022-11-20T02:41:34;4.78;;;3.83;;
16862;SDS011;52193;48.216;-1.698;2022-11-20T02:44:02;5.15;;;3.60;;
16862;SDS011;52193;48.216;-1.698;2022-11-20T02:46:30;4.35;;;3.58;;
16862;SDS011;52193;48.216;-1.698;2022-11-20T02:48:57;3.75;;;3.35;;
16862;SDS011;52193;48.216;-1.698;2022-11-20T02:51:24;4.23;;;3.50;;
16862;SDS011;52193;48.216;-1.698;2022-11-20T02:53:51;6.13;;;3.60;;
16862;SDS011;52193;48.216;-1.698;2022-11-20T02:56:18;4.57;;;3.45;;
16862;SDS011;52193;48.216;-1.698;2022-11-20T02:58:47;4.88;;;3.20;;
16862;SDS011;52193;48.216;-1.698;2022-11-20T03:01:14;5.18;;;3.20;;
16862;SDS011;52193;48.216;-1.698;2022-11-20T03:03:41;5.20;;;3.20;;
16862;SDS011;52193;48.216;-1.698;2022-11-20T03:06:08;4.70;;;3.03;;
16862;SDS011;52193;48.216;-1.698;2022-11-20T03:08:35;5.32;;;3.55;;
16862;SDS011;52193;48.216;-1.698;2022-11-20T03:11:02;5.40;;;3.60;;
16862;SDS011;52193;48.216;-1.698;2022-11-20T03:13:31;5.88;;;3.50;;
16862;SDS011;52193;48.216;-1.698;2022-11-20T03:16:04;5.07;;;3.42;;
16862;SDS011;52193;48.216;-1.698;2022-11-20T03:18:34;3.78;;;3.20;;
16862;SDS011;52193;48.216;-1.698;2022-11-20T03:21:01;5.38;;;3.60;;
16862;SDS011;52193;48.216;-1.698;2022-11-20T03:23:29;5.77;;;3.60;;
16862;SDS011;52193;48.216;-1.698;2022-11-20T03:26:06;5.88;;;3.90;;
16862;SDS011;52193;48.216;-1.698;2022-11-20T03:28:38;6.00;;;3.72;;
16862;SDS011;52193;48.216;-1.698;2022-11-20T03:31:07;5.22;;;3.40;;
16862;SDS011;52193;48.216;-1.698;2022-11-20T03:33:35;6.17;;;3.40;;
16862;SDS011;52193;48.216;-1.698;2022-11-20T03:36:03;4.60;;;3.47;;
16862;SDS011;52193;48.216;-1.698;2022-11-20T03:38:31;4.80;;;3.60;;
16862;SDS011;52193;48.216;-1.698;2022-11-20T03:40:59;5.57;;;3.70;;
16862;SDS011;52193;48.216;-1.698;2022-11-20T03:43:27;4.90;;;3.60;;
16862;SDS011;52193;48.216;-1.698;2022-11-20T03:45:54;4.38;;;3.40;;
16862;SDS011;52193;48.216;-1.698;2022-11-20T03:48:22;4.00;;;3.60;;
16862;SDS011;52193;48.216;-1.698;2022-11-20T03:50:49;5.57;;;3.60;;
16862;SDS011;52193;48.216;-1.698;2022-11-20T03:53:16;4.03;;;3.63;;
16862;SDS011;52193;48.216;-1.698;2022-11-20T03:55:43;3.95;;;3.45;;
16862;SDS011;52193;48.216;-1.698;2022-11-20T03:58:10;4.90;;;3.42;;
16862;SDS011;52193;48.216;-1.698;2022-11-20T04:00:38;5.65;;;3.58;;
16862;SDS011;52193;48.216;-1.698;2022-11-20T04:03:05;3.90;;;3.50;;
16862;SDS011;52193;48.216;-1.698;2022-11-20T04:05:34;4.60;;;3.70;;
16862;SDS011;52193;48.216;-1.698;2022-11-20T04:08:00;4.07;;;3.67;;
16862;SDS011;52193;48.216;-1.698;2022-11-20T04:10:27;4.65;;;3.60;;
16862;SDS011;52193;48.216;-1.698;2022-11-20T04:12:54;7.50;;;3.92;;
16862;SDS011;52193;48.216;-1.698;2022-11-20T04:15:21;4.55;;;3.53;;
16862;SDS011;52193;48.216;-1.698;2022-11-20T04:17:48;6.27;;;3.77;;
16862;SDS011;52193;48.216;-1.698;2022-11-20T04:20:15;4.43;;;3.75;;
16862;SDS011;52193;48.216;-1.698;2022-11-20T04:22:43;4.90;;;3.72;;
16862;SDS011;52193;48.216;-1.698;2022-11-20T04:25:10;4.40;;;3.90;;
16862;SDS011;52193;48.216;-1.698;2022-11-20T04:27:37;5.43;;;4.17;;
16862;SDS011;52193;48.216;-1.698;2022-11-20T04:30:04;4.40;;;3.97;;
16862;SDS011;52193;48.216;-1.698;2022-11-20T04:32:32;5.47;;;4.40;;
16862;SDS011;52193;48.216;-1.698;2022-11-20T04:34:59;5.23;;;4.30;;
16862;SDS011;52193;48.216;-1.698;2022-11-20T04:37:26;5.05;;;4.45;;
16862;SDS011;52193;48.216;-1.698;2022-11-20T04:39:54;4.55;;;4.15;;
16862;SDS011;52193;48.216;-1.698;2022-11-20T04:42:21;4.88;;;4.35;;
16862;SDS011;52193;48.216;-1.698;2022-11-20T04:44:57;4.70;;;4.20;;
16862;SDS011;52193;48.216;-1.698;2022-11-20T04:47:24;5.10;;;4.25;;
16862;SDS011;52193;48.216;-1.698;2022-11-20T04:49:51;4.50;;;4.20;;
16862;SDS011;52193;48.216;-1.698;2022-11-20T04:52:18;4.40;;;4.00;;
16862;SDS011;52193;48.216;-1.698;2022-11-20T04:54:45;4.60;;;4.20;;
16862;SDS011;52193;48.216;-1.698;2022-11-20T04:57:14;4.35;;;3.95;;
16862;SDS011;52193;48.216;-1.698;2022-11-20T04:59:41;4.20;;;3.90;;
16862;SDS011;52193;48.216;-1.698;2022-11-20T05:02:08;4.60;;;4.20;;
16862;SDS011;52193;48.216;-1.698;2022-11-20T05:04:35;4.60;;;4.28;;
16862;SDS011;52193;48.216;-1.698;2022-11-20T05:07:02;4.82;;;4.50;;
16862;SDS011;52193;48.216;-1.698;2022-11-20T05:09:30;4.95;;;4.45;;
16862;SDS011;52193;48.216;-1.698;2022-11-20T05:11:57;6.43;;;4.90;;
16862;SDS011;52193;48.216;-1.698;2022-11-20T05:14:25;6.30;;;4.55;;
16862;SDS011;52193;48.216;-1.698;2022-11-20T05:16:52;4.90;;;4.50;;
16862;SDS011;52193;48.216;-1.698;2022-11-20T05:19:19;5.20;;;4.70;;
16862;SDS011;52193;48.216;-1.698;2022-11-20T05:21:46;5.40;;;4.90;;
16862;SDS011;52193;48.216;-1.698;2022-11-20T05:24:13;5.47;;;4.85;;
16862;SDS011;52193;48.216;-1.698;2022-11-20T05:26:40;5.40;;;4.90;;
16862;SDS011;52193;48.216;-1.698;2022-11-20T05:29:09;5.50;;;5.00;;
16862;SDS011;52193;48.216;-1.698;2022-11-20T05:31:38;5.90;;;5.40;;
16862;SDS011;52193;48.216;-1.698;2022-11-20T05:34:06;5.80;;;5.30;;
16862;SDS011;52193;48.216;-1.698;2022-11-20T05:36:33;5.82;;;5.32;;
16862;SDS011;52193;48.216;-1.698;2022-11-20T05:39:00;5.68;;;5.10;;
16862;SDS011;52193;48.216;-1.698;2022-11-20T05:41:28;6.95;;;5.25;;
16862;SDS011;52193;48.216;-1.698;2022-11-20T05:43:55;6.47;;;5.50;;
16862;SDS011;52193;48.216;-1.698;2022-11-20T05:46:23;6.57;;;5.60;;
16862;SDS011;52193;48.216;-1.698;2022-11-20T05:48:52;6.00;;;5.50;;
16862;SDS011;52193;48.216;-1.698;2022-11-20T05:51:19;6.80;;;6.30;;
16862;SDS011;52193;48.216;-1.698;2022-11-20T05:53:46;6.30;;;5.80;;
16862;SDS011;52193;48.216;-1.698;2022-11-20T05:56:14;5.43;;;5.13;;
16862;SDS011;52193;48.216;-1.698;2022-11-20T05:58:42;5.15;;;4.65;;
16862;SDS011;52193;48.216;-1.698;2022-11-20T06:01:10;3.88;;;3.67;;
16862;SDS011;52193;48.216;-1.698;2022-11-20T06:03:39;3.90;;;3.70;;
16862;SDS011;52193;48.216;-1.698;2022-11-20T06:06:08;3.40;;;3.30;;
16862;SDS011;52193;48.216;-1.698;2022-11-20T06:08:35;3.35;;;3.20;;
16862;SDS011;52193;48.216;-1.698;2022-11-20T06:11:03;3.28;;;3.17;;
16862;SDS011;52193;48.216;-1.698;2022-11-20T06:13:31;3.72;;;3.53;;
16862;SDS011;52193;48.216;-1.698;2022-11-20T06:15:57;3.20;;;3.10;;
16862;SDS011;52193;48.216;-1.698;2022-11-20T06:18:25;3.15;;;2.95;;
16862;SDS011;52193;48.216;-1.698;2022-11-20T06:20:59;3.42;;;3.30;;
16862;SDS011;52193;48.216;-1.698;2022-11-20T06:23:29;3.78;;;3.58;;
16862;SDS011;52193;48.216;-1.698;2022-11-20T06:25:56;3.55;;;3.40;;
16862;SDS011;52193;48.216;-1.698;2022-11-20T06:28:24;3.70;;;3.60;;
16862;SDS011;52193;48.216;-1.698;2022-11-20T06:30:50;3.60;;;3.50;;
16862;SDS011;52193;48.216;-1.698;2022-11-20T06:33:17;3.80;;;3.60;;
16862;SDS011;52193;48.216;-1.698;2022-11-20T06:35:44;3.53;;;3.42;;
16862;SDS011;52193;48.216;-1.698;2022-11-20T06:38:11;3.60;;;3.40;;
16862;SDS011;52193;48.216;-1.698;2022-11-20T06:40:40;3.60;;;3.50;;
16862;SDS011;52193;48.216;-1.698;2022-11-20T06:43:07;3.20;;;3.10;;
16862;SDS011;52193;48.216;-1.698;2022-11-20T06:45:35;3.40;;;3.30;;
16862;SDS011;52193;48.216;-1.698;2022-11-20T06:48:02;3.50;;;3.40;;
16862;SDS011;52193;48.216;-1.698;2022-11-20T06:50:29;3.35;;;3.25;;
16862;SDS011;52193;48.216;-1.698;2022-11-20T06:52:56;3.33;;;3.22;;
16862;SDS011;52193;48.216;-1.698;2022-11-20T06:55:27;3.28;;;3.17;;
16862;SDS011;52193;48.216;-1.698;2022-11-20T06:57:55;3.70;;;3.50;;
16862;SDS011;52193;48.216;-1.698;2022-11-20T07:00:22;3.40;;;3.20;;
16862;SDS011;52193;48.216;-1.698;2022-11-20T07:02:49;3.30;;;3.20;;
16862;SDS011;52193;48.216;-1.698;2022-11-20T07:05:16;3.13;;;3.03;;
16862;SDS011;52193;48.216;-1.698;2022-11-20T07:07:43;3.65;;;3.55;;
16862;SDS011;52193;48.216;-1.698;2022-11-20T07:10:11;3.00;;;2.90;;
16862;SDS011;52193;48.216;-1.698;2022-11-20T07:12:38;3.45;;;3.25;;
16862;SDS011;52193;48.216;-1.698;2022-11-20T07:15:07;3.43;;;3.33;;
16862;SDS011;52193;48.216;-1.698;2022-11-20T07:17:34;3.20;;;3.10;;
16862;SDS011;52193;48.216;-1.698;2022-11-20T07:20:01;2.97;;;2.80;;
16862;SDS011;52193;48.216;-1.698;2022-11-20T07:22:28;2.90;;;2.80;;
16862;SDS011;52193;48.216;-1.698;2022-11-20T07:24:55;3.20;;;3.10;;
16862;SDS011;52193;48.216;-1.698;2022-11-20T07:27:22;5.90;;;5.60;;
16862;SDS011;52193;48.216;-1.698;2022-11-20T07:29:49;4.75;;;4.55;;
16862;SDS011;52193;48.216;-1.698;2022-11-20T07:32:17;4.13;;;3.92;;
16862;SDS011;52193;48.216;-1.698;2022-11-20T07:34:44;3.90;;;3.80;;
16862;SDS011;52193;48.216;-1.698;2022-11-20T07:37:11;3.17;;;3.08;;
16862;SDS011;52193;48.216;-1.698;2022-11-20T07:39:38;4.20;;;4.00;;
16862;SDS011;52193;48.216;-1.698;2022-11-20T07:42:05;3.83;;;3.53;;
16862;SDS011;52193;48.216;-1.698;2022-11-20T07:44:33;3.60;;;3.40;;
16862;SDS011;52193;48.216;-1.698;2022-11-20T07:47:00;4.00;;;3.80;;
16862;SDS011;52193;48.216;-1.698;2022-11-20T07:49:28;5.05;;;4.75;;
16862;SDS011;52193;48.216;-1.698;2022-11-20T07:51:55;4.07;;;3.88;;
16862;SDS011;52193;48.216;-1.698;2022-11-20T07:54:22;3.63;;;3.42;;
16862;SDS011;52193;48.216;-1.698;2022-11-20T07:56:49;4.20;;;3.80;;
16862;SDS011;52193;48.216;-1.698;2022-11-20T07:59:16;5.50;;;5.00;;
16862;SDS011;52193;48.216;-1.698;2022-11-20T08:01:43;4.73;;;4.40;;
16862;SDS011;52193;48.216;-1.698;2022-11-20T08:04:10;4.00;;;3.58;;
16862;SDS011;52193;48.216;-1.698;2022-11-20T08:06:38;4.30;;;3.60;;
16862;SDS011;52193;48.216;-1.698;2022-11-20T08:09:05;3.97;;;3.65;;
16862;SDS011;52193;48.216;-1.698;2022-11-20T08:11:32;4.90;;;3.80;;
16862;SDS011;52193;48.216;-1.698;2022-11-20T08:14:17;4.07;;;3.60;;
16862;SDS011;52193;48.216;-1.698;2022-11-20T08:16:45;4.00;;;3.70;;
16862;SDS011;52193;48.216;-1.698;2022-11-20T08:19:14;5.93;;;5.40;;
16862;SDS011;52193;48.216;-1.698;2022-11-20T08:21:43;7.35;;;6.60;;
16862;SDS011;52193;48.216;-1.698;2022-11-20T08:24:11;8.02;;;7.32;;
16862;SDS011;52193;48.216;-1.698;2022-11-20T08:26:38;7.20;;;6.32;;
16862;SDS011;52193;48.216;-1.698;2022-11-20T08:29:05;6.30;;;5.70;;
16862;SDS011;52193;48.216;-1.698;2022-11-20T08:31:32;8.05;;;6.10;;
16862;SDS011;52193;48.216;-1.698;2022-11-20T08:33:59;6.90;;;5.63;;
16862;SDS011;52193;48.216;-1.698;2022-11-20T08:36:26;6.43;;;5.50;;
16862;SDS011;52193;48.216;-1.698;2022-11-20T08:38:55;8.52;;;5.32;;
16862;SDS011;52193;48.216;-1.698;2022-11-20T08:41:22;8.10;;;5.85;;
16862;SDS011;52193;48.216;-1.698;2022-11-20T08:43:53;9.43;;;5.63;;
16862;SDS011;52193;48.216;-1.698;2022-11-20T08:46:21;10.00;;;5.60;;
16862;SDS011;52193;48.216;-1.698;2022-11-20T08:48:49;11.40;;;5.75;;
16862;SDS011;52193;48.216;-1.698;2022-11-20T08:51:16;13.20;;;5.85;;
16862;SDS011;52193;48.216;-1.698;2022-11-20T08:53:44;16.80;;;5.97;;
16862;SDS011;52193;48.216;-1.698;2022-11-20T08:56:12;14.65;;;6.75;;
16862;SDS011;52193;48.216;-1.698;2022-11-20T08:58:39;16.48;;;6.35;;
16862;SDS011;52193;48.216;-1.698;2022-11-20T09:01:06;20.67;;;7.20;;
16862;SDS011;52193;48.216;-1.698;2022-11-20T09:03:33;18.88;;;6.95;;
16862;SDS011;52193;48.216;-1.698;2022-11-20T09:06:01;18.30;;;7.23;;
16862;SDS011;52193;48.216;-1.698;2022-11-20T09:08:29;19.13;;;7.57;;
16862;SDS011;52193;48.216;-1.698;2022-11-20T09:10:57;18.58;;;7.50;;
16862;SDS011;52193;48.216;-1.698;2022-11-20T09:13:26;18.35;;;6.95;;
16862;SDS011;52193;48.216;-1.698;2022-11-20T09:15:54;21.80;;;7.65;;
16862;SDS011;52193;48.216;-1.698;2022-11-20T09:18:21;21.67;;;8.10;;
16862;SDS011;52193;48.216;-1.698;2022-11-20T09:20:49;24.02;;;8.02;;
16862;SDS011;52193;48.216;-1.698;2022-11-20T09:23:16;21.40;;;8.77;;
16862;SDS011;52193;48.216;-1.698;2022-11-20T09:25:43;26.63;;;8.45;;
16862;SDS011;52193;48.216;-1.698;2022-11-20T09:28:10;28.23;;;8.35;;
16862;SDS011;52193;48.216;-1.698;2022-11-20T09:30:39;24.58;;;8.30;;
16862;SDS011;52193;48.216;-1.698;2022-11-20T09:33:06;25.48;;;8.88;;
16862;SDS011;52193;48.216;-1.698;2022-11-20T09:35:33;26.83;;;8.55;;
16862;SDS011;52193;48.216;-1.698;2022-11-20T09:38:04;24.52;;;8.65;;
16862;SDS011;52193;48.216;-1.698;2022-11-20T09:40:31;23.27;;;8.75;;
16862;SDS011;52193;48.216;-1.698;2022-11-20T09:43:01;25.20;;;9.02;;
16862;SDS011;52193;48.216;-1.698;2022-11-20T09:48:25;27.77;;;9.23;;
16862;SDS011;52193;48.216;-1.698;2022-11-20T09:51:03;28.30;;;9.30;;
16862;SDS011;52193;48.216;-1.698;2022-11-20T09:53:42;27.27;;;8.85;;
16862;SDS011;52193;48.216;-1.698;2022-11-20T09:56:17;27.27;;;8.88;;
16862;SDS011;52193;48.216;-1.698;2022-11-20T09:58:47;29.80;;;8.97;;
16862;SDS011;52193;48.216;-1.698;2022-11-20T10:01:18;27.27;;;8.87;;
16862;SDS011;52193;48.216;-1.698;2022-11-20T10:03:51;28.70;;;9.00;;
16862;SDS011;52193;48.216;-1.698;2022-11-20T10:06:26;25.77;;;8.70;;
16862;SDS011;52193;48.216;-1.698;2022-11-20T10:08:59;24.67;;;8.98;;
16862;SDS011;52193;48.216;-1.698;2022-11-20T10:11:34;27.92;;;9.75;;
16862;SDS011;52193;48.216;-1.698;2022-11-20T10:14:13;31.10;;;9.43;;
16862;SDS011;52193;48.216;-1.698;2022-11-20T10:16:52;29.13;;;8.27;;
16862;SDS011;52193;48.216;-1.698;2022-11-20T10:19:31;28.97;;;8.80;;
16862;SDS011;52193;48.216;-1.698;2022-11-20T10:22:12;28.92;;;8.77;;
16862;SDS011;52193;48.216;-1.698;2022-11-20T10:24:49;27.98;;;9.75;;
16862;SDS011;52193;48.216;-1.698;2022-11-20T10:27:34;33.65;;;9.57;;
16862;SDS011;52193;48.216;-1.698;2022-11-20T10:30:15;30.17;;;9.85;;
16862;SDS011;52193;48.216;-1.698;2022-11-20T10:32:47;32.93;;;10.10;;
16862;SDS011;52193;48.216;-1.698;2022-11-20T10:35:19;30.58;;;9.30;;
16862;SDS011;52193;48.216;-1.698;2022-11-20T10:37:50;30.90;;;8.73;;
16862;SDS011;52193;48.216;-1.698;2022-11-20T10:40:23;27.80;;;8.77;;
16862;SDS011;52193;48.216;-1.698;2022-11-20T10:42:57;32.88;;;9.80;;
16862;SDS011;52193;48.216;-1.698;2022-11-20T10:45:42;26.63;;;8.63;;
16862;SDS011;52193;48.216;-1.698;2022-11-20T10:48:19;27.38;;;8.90;;
16862;SDS011;52193;48.216;-1.698;2022-11-20T10:53:42;23.65;;;8.43;;
16862;SDS011;52193;48.216;-1.698;2022-11-20T10:56:16;26.27;;;8.60;;
16862;SDS011;52193;48.216;-1.698;2022-11-20T10:58:48;27.98;;;8.50;;
16862;SDS011;52193;48.216;-1.698;2022-11-20T11:01:28;27.20;;;8.55;;
16862;SDS011;52193;48.216;-1.698;2022-11-20T11:03:57;27.85;;;8.93;;
16862;SDS011;52193;48.216;-1.698;2022-11-20T11:06:27;26.63;;;8.32;;
16862;SDS011;52193;48.216;-1.698;2022-11-20T11:08:59;26.95;;;8.77;;
16862;SDS011;52193;48.216;-1.698;2022-11-20T11:11:30;28.10;;;9.00;;
16862;SDS011;52193;48.216;-1.698;2022-11-20T11:14:06;26.45;;;8.40;;
16862;SDS011;52193;48.216;-1.698;2022-11-20T11:16:33;26.17;;;9.10;;
16862;SDS011;52193;48.216;-1.698;2022-11-20T11:19:05;27.17;;;8.80;;
16862;SDS011;52193;48.216;-1.698;2022-11-20T11:21:33;26.88;;;8.45;;
16862;SDS011;52193;48.216;-1.698;2022-11-20T11:24:14;24.07;;;8.67;;
16862;SDS011;52193;48.216;-1.698;2022-11-20T11:26:50;27.83;;;8.40;;
16862;SDS011;52193;48.216;-1.698;2022-11-20T11:29:22;27.45;;;8.35;;
16862;SDS011;52193;48.216;-1.698;2022-11-20T11:32:02;24.65;;;8.27;;
16862;SDS011;52193;48.216;-1.698;2022-11-20T11:34:31;27.00;;;8.38;;
16862;SDS011;52193;48.216;-1.698;2022-11-20T11:36:59;22.85;;;7.10;;
16862;SDS011;52193;48.216;-1.698;2022-11-20T11:39:28;19.90;;;6.60;;
16862;SDS011;52193;48.216;-1.698;2022-11-20T11:41:57;21.75;;;7.03;;
16862;SDS011;52193;48.216;-1.698;2022-11-20T11:44:27;20.13;;;6.65;;
16862;SDS011;52193;48.216;-1.698;2022-11-20T11:47:17;16.92;;;6.25;;
16862;SDS011;52193;48.216;-1.698;2022-11-20T11:49:50;17.73;;;6.85;;
16862;SDS011;52193;48.216;-1.698;2022-11-20T11:52:27;18.08;;;6.43;;
16862;SDS011;52193;48.216;-1.698;2022-11-20T11:54:57;19.70;;;7.07;;
16862;SDS011;52193;48.216;-1.698;2022-11-20T11:57:28;16.87;;;6.70;;
16862;SDS011;52193;48.216;-1.698;2022-11-20T12:00:05;14.82;;;5.88;;
16862;SDS011;52193;48.216;-1.698;2022-11-20T12:02:36;15.40;;;5.53;;
16862;SDS011;52193;48.216;-1.698;2022-11-20T12:05:11;17.38;;;6.30;;
16862;SDS011;52193;48.216;-1.698;2022-11-20T12:07:45;14.00;;;6.80;;
16862;SDS011;52193;48.216;-1.698;2022-11-20T12:10:19;17.38;;;7.10;;
16862;SDS011;52193;48.216;-1.698;2022-11-20T12:12:50;14.77;;;5.95;;
16862;SDS011;52193;48.216;-1.698;2022-11-20T12:15:29;15.60;;;5.75;;
16862;SDS011;52193;48.216;-1.698;2022-11-20T12:17:57;17.52;;;6.15;;
16862;SDS011;52193;48.216;-1.698;2022-11-20T12:20:26;15.03;;;5.60;;
16862;SDS011;52193;48.216;-1.698;2022-11-20T12:22:56;16.92;;;5.95;;
16862;SDS011;52193;48.216;-1.698;2022-11-20T12:25:33;23.00;;;7.63;;
16862;SDS011;52193;48.216;-1.698;2022-11-20T12:28:20;17.77;;;6.03;;
16862;SDS011;52193;48.216;-1.698;2022-11-20T12:31:07;18.77;;;6.47;;
16862;SDS011;52193;48.216;-1.698;2022-11-20T12:33:59;17.35;;;6.80;;
16862;SDS011;52193;48.216;-1.698;2022-11-20T12:36:38;22.73;;;9.38;;
16862;SDS011;52193;48.216;-1.698;2022-11-20T12:39:22;15.20;;;5.85;;
16862;SDS011;52193;48.216;-1.698;2022-11-20T12:42:13;21.52;;;6.10;;
16862;SDS011;52193;48.216;-1.698;2022-11-20T12:48:22;20.65;;;10.55;;
16862;SDS011;52193;48.216;-1.698;2022-11-20T12:51:05;19.35;;;6.25;;
16862;SDS011;52193;48.216;-1.698;2022-11-20T12:54:28;17.63;;;6.47;;
16862;SDS011;52193;48.216;-1.698;2022-11-20T12:57:15;23.98;;;8.32;;
16862;SDS011;52193;48.216;-1.698;2022-11-20T12:59:58;19.45;;;6.10;;
16862;SDS011;52193;48.216;-1.698;2022-11-20T13:02:34;17.63;;;5.97;;
16862;SDS011;52193;48.216;-1.698;2022-11-20T13:08:00;19.98;;;6.55;;
16862;SDS011;52193;48.216;-1.698;2022-11-20T13:10:33;19.77;;;7.07;;
16862;SDS011;52193;48.216;-1.698;2022-11-20T13:13:08;19.35;;;6.82;;
16862;SDS011;52193;48.216;-1.698;2022-11-20T13:15:50;20.98;;;7.05;;
16862;SDS011;52193;48.216;-1.698;2022-11-20T13:18:22;18.88;;;7.85;;
16862;SDS011;52193;48.216;-1.698;2022-11-20T13:20:49;18.15;;;6.10;;
16862;SDS011;52193;48.216;-1.698;2022-11-20T13:23:23;18.63;;;6.57;;
16862;SDS011;52193;48.216;-1.698;2022-11-20T13:26:01;18.33;;;8.30;;
16862;SDS011;52193;48.216;-1.698;2022-11-20T13:28:30;16.85;;;6.18;;
16862;SDS011;52193;48.216;-1.698;2022-11-20T13:30:57;18.02;;;5.88;;
16862;SDS011;52193;48.216;-1.698;2022-11-20T13:33:29;18.20;;;6.30;;
16862;SDS011;52193;48.216;-1.698;2022-11-20T13:35:58;15.55;;;5.20;;
16862;SDS011;52193;48.216;-1.698;2022-11-20T13:38:27;14.07;;;5.55;;
16862;SDS011;52193;48.216;-1.698;2022-11-20T13:40:56;14.30;;;5.80;;
16862;SDS011;52193;48.216;-1.698;2022-11-20T13:43:28;16.25;;;7.13;;
16862;SDS011;52193;48.216;-1.698;2022-11-20T13:46:02;19.30;;;9.88;;
16862;SDS011;52193;48.216;-1.698;2022-11-20T13:48:31;19.23;;;8.60;;
16862;SDS011;52193;48.216;-1.698;2022-11-20T13:51:03;17.15;;;8.85;;
16862;SDS011;52193;48.216;-1.698;2022-11-20T13:56:48;14.50;;;5.40;;
16862;SDS011;52193;48.216;-1.698;2022-11-20T13:59:31;18.33;;;6.00;;
16862;SDS011;52193;48.216;-1.698;2022-11-20T14:02:10;14.53;;;5.50;;
16862;SDS011;52193;48.216;-1.698;2022-11-20T14:04:41;18.77;;;5.63;;
16862;SDS011;52193;48.216;-1.698;2022-11-20T14:07:12;14.65;;;5.47;;
16862;SDS011;52193;48.216;-1.698;2022-11-20T14:09:48;17.13;;;6.00;;
16862;SDS011;52193;48.216;-1.698;2022-11-20T14:12:18;15.23;;;5.10;;
16862;SDS011;52193;48.216;-1.698;2022-11-20T14:14:50;15.80;;;5.50;;
16862;SDS011;52193;48.216;-1.698;2022-11-20T14:17:19;18.30;;;5.87;;
16862;SDS011;52193;48.216;-1.698;2022-11-20T14:19:47;14.20;;;5.10;;
16862;SDS011;52193;48.216;-1.698;2022-11-20T14:22:17;15.80;;;5.57;;
16862;SDS011;52193;48.216;-1.698;2022-11-20T14:24:46;13.52;;;4.93;;
16862;SDS011;52193;48.216;-1.698;2022-11-20T14:27:14;12.23;;;4.47;;
16862;SDS011;52193;48.216;-1.698;2022-11-20T14:29:44;11.43;;;4.70;;
16862;SDS011;52193;48.216;-1.698;2022-11-20T14:32:14;13.23;;;5.10;;
16862;SDS011;52193;48.216;-1.698;2022-11-20T14:34:43;12.65;;;4.93;;
16862;SDS011;52193;48.216;-1.698;2022-11-20T14:37:17;12.77;;;4.63;;
16862;SDS011;52193;48.216;-1.698;2022-11-20T14:39:48;10.40;;;4.30;;
16862;SDS011;52193;48.216;-1.698;2022-11-20T14:42:18;11.13;;;4.13;;
16862;SDS011;52193;48.216;-1.698;2022-11-20T14:44:47;12.13;;;4.47;;
16862;SDS011;52193;48.216;-1.698;2022-11-20T14:47:17;11.73;;;4.30;;
16862;SDS011;52193;48.216;-1.698;2022-11-20T14:49:47;11.27;;;4.65;;
16862;SDS011;52193;48.216;-1.698;2022-11-20T14:52:16;13.52;;;4.28;;
16862;SDS011;52193;48.216;-1.698;2022-11-20T14:54:44;14.35;;;5.25;;
16862;SDS011;52193;48.216;-1.698;2022-11-20T14:57:25;12.30;;;4.97;;
16862;SDS011;52193;48.216;-1.698;2022-11-20T15:00:08;11.45;;;5.07;;
16862;SDS011;52193;48.216;-1.698;2022-11-20T15:02:46;13.20;;;5.30;;
16862;SDS011;52193;48.216;-1.698;2022-11-20T15:05:15;12.00;;;5.03;;